首页
METAR-TAF:

METAR-TAF

机场 :

米蘇拉, 蒙大拿州, 美国

纬度: 46-55-15N, 经度: 114-05-33W, 海拔: 975米

当前天气观测

该预报发布于1小时和5分钟前的21:53 UTC
风速13节,风向西,有时为21节阵风
温度 34°C
湿度 18%
气压 1015 hPa
能見度: 16.1公里
天空无云

METAR: KMSO 152153Z 26013G21KT 10SM CLR 34/06 A2998 RMK AO2 SLP124 T03440056

时间: 16:58 (22:58 UTC)

预报

该预报发布于2小时和54分钟前的20:04 UTC
预报有效从15日的 20点(UTC)到 16日的 18点(UTC)
风速15节,风向西转西南,有时为23节阵风
能見度: 10公里
天空无云
从 15日的 2200点(UTC)
风速10节,风向西转西北,有时为19节阵风
能見度: 10公里
天空无云
从 16日的 0200点(UTC)
风速10节,风向西
能見度: 10公里
天空无云

TAF: KMSO 152004Z 1520/1618 25015G23KT P6SM SKC FM152200 29010G19KT P6SM SKC FM160200 28010KT P6SM SKC

超过4000个机场的气象观测和天气预报(METAR&TAF报告)。

可查询的气象台以黄色和红色小点在地图上表示。

将鼠标移到小点上方,可查看气象台名称。

然后点击查看天气观测和预报。

如需切换地图:点击带黑十字的绿色按钮放大地图;点击带横线的绿色按钮缩小地图;或者点击绿色箭头查看邻近地区的地图。


METAR-TAF: